Time;durP1;ratioP1;P1;durP2;ratioP2;P2;SDS_P1;SDS_P2;PMS_P1;PMS_P2;Temp;Humidity;BMP_temperature;BMP_pressure;BME280_temperature;BME280_humidity;BME280_pressure;Samples;Min_cycle;Max_cycle;Signal;HPM_P1;HPM_P2
2022/08/26 00:02:17;;;;;;;;;;;24.40;70.00;;;;;;5049080;28;19921;-70
2022/08/26 00:04:43;;;;;;;;;;;24.40;70.30;;;;;;5048378;28;19943;-70
2022/08/26 00:07:08;;;;;;;;;;;24.30;70.30;;;;;;5048236;28;20360;-66
2022/08/26 00:09:34;;;;;;;;;;;24.30;70.30;;;;;;5030839;28;19916;-66
2022/08/26 00:12:00;;;;;;;;;;;24.30;70.30;;;;;;5030897;28;19968;-66
2022/08/26 00:14:26;;;;;;;;;;;24.40;70.30;;;;;;5049082;28;19940;-66
2022/08/26 00:16:52;;;;;;;;;;;24.40;70.50;;;;;;5048379;28;19921;-66
2022/08/26 00:19:18;;;;;;;;;;;24.30;70.50;;;;;;5048460;28;20453;-66
2022/08/26 00:21:45;;;;;;;;;;;24.30;70.60;;;;;;5048477;28;20004;-66
2022/08/26 00:24:12;;;;;;;;;;;24.30;70.60;;;;;;5048745;28;19970;-66
2022/08/26 00:26:38;;;;;;;;;;;24.20;70.70;;;;;;5030933;28;19928;-67
2022/08/26 00:29:03;;;;;;;;;;;24.20;71.00;;;;;;5030766;28;20648;-66
2022/08/26 00:31:29;;;;;;;;;;;24.20;71.00;;;;;;5047158;28;19924;-66
2022/08/26 00:33:55;;;;;;;;;;;24.20;71.00;;;;;;5045132;28;19924;-66
2022/08/26 00:36:21;;;;;;;;;;;24.20;71.00;;;;;;5030582;28;20283;-66
2022/08/26 00:38:46;;;;;;;;;;;24.20;70.80;;;;;;5048399;28;20335;-66
2022/08/26 00:41:12;;;;;;;;;;;24.20;70.70;;;;;;5048732;28;19928;-66
2022/08/26 00:43:38;;;;;;;;;;;24.20;70.80;;;;;;5048788;28;20335;-66
2022/08/26 00:46:09;;;;;;;;;;;24.20;71.30;;;;;;5048902;28;20106;-66
2022/08/26 00:48:36;;;;;;;;;;;24.10;71.20;;;;;;5029968;28;19971;-65
2022/08/26 00:51:04;;;;;;;;;;;24.10;71.50;;;;;;5047838;28;19916;-66
2022/08/26 00:53:33;;;;;;;;;;;24.00;71.50;;;;;;5048582;28;19919;-67
2022/08/26 00:56:02;;;;;;;;;;;24.00;71.50;;;;;;5030691;28;20331;-66
2022/08/26 00:58:30;;;;;;;;;;;24.00;71.70;;;;;;5045987;28;19916;-66
2022/08/26 01:00:56;;;;;;;;;;;24.00;71.80;;;;;;5030549;28;20391;-66
2022/08/26 01:03:24;;;;;;;;;;;23.90;71.80;;;;;;5030734;28;19960;-66
2022/08/26 01:05:52;;;;;;;;;;;23.90;71.80;;;;;;5047557;28;19974;-66
2022/08/26 01:08:17;;;;;;;;;;;24.00;71.70;;;;;;5048290;28;20394;-66
2022/08/26 01:10:43;;;;;;;;;;;24.00;71.50;;;;;;5030559;28;20024;-69
2022/08/26 01:13:09;;;;;;;;;;;24.00;71.40;;;;;;5048651;28;19924;-69
2022/08/26 01:15:38;;;;;;;;;;;24.00;71.40;;;;;;5048174;28;20398;-69
2022/08/26 01:18:04;;;;;;;;;;;24.00;71.90;;;;;;5048267;28;20288;-69
2022/08/26 01:20:36;;;;;;;;;;;23.90;71.90;;;;;;5047774;28;19920;-69
2022/08/26 01:23:04;;;;;;;;;;;23.90;71.90;;;;;;5047940;28;20003;-70
2022/08/26 01:25:31;;;;;;;;;;;23.90;71.90;;;;;;5051883;28;19917;-70
2022/08/26 01:27:58;;;;;;;;;;;23.90;71.70;;;;;;5049200;28;19916;-70
2022/08/26 01:30:25;;;;;;;;;;;23.90;71.70;;;;;;5051818;28;19929;-69
2022/08/26 01:32:51;;;;;;;;;;;23.90;71.80;;;;;;5034191;28;19967;-69
2022/08/26 01:35:17;;;;;;;;;;;23.90;71.70;;;;;;5051655;28;19917;-69
2022/08/26 01:37:43;;;;;;;;;;;23.90;71.60;;;;;;5032927;28;19916;-69
2022/08/26 01:40:12;;;;;;;;;;;23.80;71.70;;;;;;5051675;28;19912;-69
2022/08/26 01:42:39;;;;;;;;;;;23.80;71.60;;;;;;5051623;28;19917;-69
2022/08/26 01:45:05;;;;;;;;;;;23.80;71.80;;;;;;5051668;28;19942;-70
2022/08/26 01:47:32;;;;;;;;;;;23.80;72.00;;;;;;5051108;28;19913;-69
2022/08/26 01:49:59;;;;;;;;;;;23.70;71.90;;;;;;5051038;28;19917;-70
2022/08/26 01:52:26;;;;;;;;;;;23.70;72.00;;;;;;5051231;28;19921;-70
2022/08/26 01:54:52;;;;;;;;;;;23.70;71.90;;;;;;5051267;28;19995;-69
2022/08/26 01:57:19;;;;;;;;;;;23.70;72.00;;;;;;5047024;28;20023;-69
2022/08/26 01:59:46;;;;;;;;;;;23.70;72.20;;;;;;5050837;28;19992;-69
2022/08/26 02:02:11;;;;;;;;;;;23.60;72.10;;;;;;5051432;28;20392;-69
2022/08/26 02:04:44;;;;;;;;;;;23.60;72.10;;;;;;5033192;28;20009;-69
2022/08/26 02:07:09;;;;;;;;;;;23.70;72.00;;;;;;5050294;28;20335;-69
2022/08/26 02:09:38;;;;;;;;;;;23.70;71.80;;;;;;5051156;28;20006;-69
2022/08/26 02:12:04;;;;;;;;;;;23.70;71.90;;;;;;5033334;28;20379;-69
2022/08/26 02:14:33;;;;;;;;;;;23.60;71.90;;;;;;5033267;28;19959;-69
2022/08/26 02:16:59;;;;;;;;;;;23.60;71.80;;;;;;5032506;28;19917;-69
2022/08/26 02:19:27;;;;;;;;;;;23.60;71.90;;;;;;5050611;28;19969;-69
2022/08/26 02:21:53;;;;;;;;;;;23.60;72.10;;;;;;5049053;28;19952;-69
2022/08/26 02:24:21;;;;;;;;;;;23.60;72.10;;;;;;5050658;28;19955;-69
2022/08/26 02:26:46;;;;;;;;;;;23.50;72.10;;;;;;5050277;28;20311;-69
2022/08/26 02:29:33;;;;;;;;;;;23.50;72.00;;;;;;5049253;28;20195;-69
2022/08/26 02:31:58;;;;;;;;;;;23.50;72.00;;;;;;5032752;28;19964;-69
2022/08/26 02:34:30;;;;;;;;;;;23.50;72.10;;;;;;5049674;28;19951;-69
2022/08/26 02:36:57;;;;;;;;;;;23.50;72.30;;;;;;5050101;28;19982;-69
2022/08/26 02:39:23;;;;;;;;;;;23.50;72.30;;;;;;5050671;28;20011;-69
2022/08/26 02:41:48;;;;;;;;;;;23.40;72.30;;;;;;5032597;28;19913;-69
2022/08/26 02:44:14;;;;;;;;;;;23.50;72.20;;;;;;5050321;28;19925;-69
2022/08/26 02:46:40;;;;;;;;;;;23.50;72.20;;;;;;5048011;28;20354;-69
2022/08/26 02:49:07;;;;;;;;;;;23.50;72.20;;;;;;5050005;28;19920;-70
2022/08/26 02:51:33;;;;;;;;;;;23.50;72.30;;;;;;5050166;28;19952;-69
2022/08/26 02:53:58;;;;;;;;;;;23.40;72.30;;;;;;5050219;28;19990;-66
2022/08/26 02:56:24;;;;;;;;;;;23.40;72.30;;;;;;5050196;28;19944;-66
2022/08/26 02:58:49;;;;;;;;;;;23.40;72.40;;;;;;5032255;28;19939;-66
2022/08/26 03:01:28;;;;;;;;;;;23.40;72.30;;;;;;5050158;28;19917;-66
2022/08/26 03:03:54;;;;;;;;;;;23.40;72.30;;;;;;5046523;28;19916;-66
2022/08/26 03:06:20;;;;;;;;;;;23.40;72.40;;;;;;5049420;28;19917;-66
2022/08/26 03:08:46;;;;;;;;;;;23.40;72.50;;;;;;5050228;28;19920;-66
2022/08/26 03:11:12;;;;;;;;;;;23.40;72.40;;;;;;5050033;28;19913;-66
2022/08/26 03:13:38;;;;;;;;;;;23.30;72.40;;;;;;5048833;28;19924;-69
2022/08/26 03:16:04;;;;;;;;;;;23.30;72.40;;;;;;5050587;28;19920;-66
2022/08/26 03:18:30;;;;;;;;;;;23.30;72.50;;;;;;5049151;28;19912;-66
2022/08/26 03:20:56;;;;;;;;;;;23.30;72.70;;;;;;5042490;28;19923;-66
2022/08/26 03:23:22;;;;;;;;;;;23.30;72.90;;;;;;5049938;28;19921;-66
2022/08/26 03:25:51;;;;;;;;;;;23.20;72.90;;;;;;5049582;28;19921;-66
2022/08/26 03:28:17;;;;;;;;;;;23.20;72.70;;;;;;5049289;28;19917;-66
2022/08/26 03:30:43;;;;;;;;;;;23.20;72.70;;;;;;5049178;28;20058;-66
2022/08/26 03:33:10;;;;;;;;;;;23.20;72.70;;;;;;5049494;28;19912;-66
2022/08/26 03:35:36;;;;;;;;;;;23.20;72.90;;;;;;5048971;28;19960;-66
2022/08/26 03:38:03;;;;;;;;;;;23.20;72.80;;;;;;5031188;28;19958;-66
2022/08/26 03:40:30;;;;;;;;;;;23.20;72.70;;;;;;5049459;28;19924;-66
2022/08/26 03:42:55;;;;;;;;;;;23.20;72.70;;;;;;5039080;28;20311;-66
2022/08/26 03:45:21;;;;;;;;;;;23.20;72.80;;;;;;5044623;28;19924;-66
2022/08/26 03:47:46;;;;;;;;;;;23.20;72.70;;;;;;5047719;28;19921;-66
2022/08/26 03:50:14;;;;;;;;;;;23.20;72.60;;;;;;5047864;28;19921;-66
2022/08/26 03:52:39;;;;;;;;;;;23.20;72.50;;;;;;5046612;28;19917;-66
2022/08/26 03:55:06;;;;;;;;;;;23.20;72.30;;;;;;5048677;28;19920;-66
2022/08/26 03:57:32;;;;;;;;;;;23.30;72.40;;;;;;5040210;28;19919;-66
2022/08/26 03:59:57;;;;;;;;;;;23.20;72.30;;;;;;5028960;28;19920;-66
2022/08/26 04:02:23;;;;;;;;;;;23.20;72.40;;;;;;5046484;28;19928;-69
2022/08/26 04:04:49;;;;;;;;;;;23.20;72.30;;;;;;5046004;28;19916;-69
2022/08/26 04:07:14;;;;;;;;;;;23.20;72.40;;;;;;5046652;28;20375;-69
2022/08/26 04:09:40;;;;;;;;;;;23.20;72.30;;;;;;5047189;28;19917;-69
2022/08/26 04:12:05;;;;;;;;;;;23.20;72.30;;;;;;5043421;28;19917;-69
2022/08/26 04:14:31;;;;;;;;;;;23.20;72.20;;;;;;5045410;28;19917;-69
2022/08/26 04:16:57;;;;;;;;;;;23.20;72.10;;;;;;5047656;28;19955;-69
2022/08/26 04:19:23;;;;;;;;;;;23.30;72.20;;;;;;5039146;28;19921;-69
2022/08/26 04:21:53;;;;;;;;;;;23.20;72.30;;;;;;5009370;28;20350;-69
2022/08/26 04:24:20;;;;;;;;;;;23.20;72.20;;;;;;5005625;28;20298;-69
2022/08/26 04:26:46;;;;;;;;;;;23.20;72.30;;;;;;5043191;28;20266;-66
2022/08/26 04:29:17;;;;;;;;;;;23.20;72.30;;;;;;5027827;28;20011;-66
2022/08/26 04:31:43;;;;;;;;;;;23.20;72.20;;;;;;5045290;28;20042;-66
2022/08/26 04:34:08;;;;;;;;;;;23.20;72.20;;;;;;5048031;28;19917;-66
2022/08/26 04:36:34;;;;;;;;;;;23.20;72.10;;;;;;5043952;28;19924;-66
2022/08/26 04:39:01;;;;;;;;;;;23.20;71.90;;;;;;5047627;28;19916;-66
2022/08/26 04:41:26;;;;;;;;;;;23.20;71.90;;;;;;5046042;28;19974;-66
2022/08/26 04:43:52;;;;;;;;;;;23.20;71.70;;;;;;5029155;28;19925;-66
2022/08/26 04:46:20;;;;;;;;;;;23.30;71.60;;;;;;5041794;28;19967;-66
2022/08/26 04:48:47;;;;;;;;;;;23.30;71.60;;;;;;5046542;28;20412;-66
2022/08/26 04:51:13;;;;;;;;;;;23.20;71.50;;;;;;5028415;28;19928;-66
2022/08/26 04:53:39;;;;;;;;;;;23.20;71.50;;;;;;5047398;28;19917;-66
2022/08/26 04:56:04;;;;;;;;;;;23.10;71.70;;;;;;5046902;28;19913;-66
2022/08/26 04:58:30;;;;;;;;;;;23.20;71.70;;;;;;5049483;28;19913;-66
2022/08/26 05:00:55;;;;;;;;;;;23.20;71.50;;;;;;5052334;28;19928;-66
2022/08/26 05:03:22;;;;;;;;;;;23.20;71.30;;;;;;5052695;28;19921;-66
2022/08/26 05:05:51;;;;;;;;;;;23.30;72.10;;;;;;5051508;28;19921;-66
2022/08/26 05:08:18;;;;;;;;;;;23.20;71.50;;;;;;5052021;28;20036;-66
2022/08/26 05:10:46;;;;;;;;;;;23.10;71.60;;;;;;5049776;28;19916;-66
2022/08/26 05:13:13;;;;;;;;;;;23.20;71.40;;;;;;5052229;28;19920;-66
2022/08/26 05:15:38;;;;;;;;;;;23.20;71.30;;;;;;5052096;28;20011;-67
2022/08/26 05:18:04;;;;;;;;;;;23.30;71.30;;;;;;5034144;28;20011;-66
2022/08/26 05:20:33;;;;;;;;;;;23.30;71.20;;;;;;5051977;28;19987;-69
2022/08/26 05:22:59;;;;;;;;;;;23.30;71.00;;;;;;5051741;28;20019;-69
2022/08/26 05:25:25;;;;;;;;;;;23.30;70.90;;;;;;5051747;28;19923;-69
2022/08/26 05:27:51;;;;;;;;;;;23.30;70.90;;;;;;5051640;28;19927;-69
2022/08/26 05:30:17;;;;;;;;;;;23.30;70.70;;;;;;5052032;28;20403;-69
2022/08/26 05:32:42;;;;;;;;;;;23.30;70.70;;;;;;5034011;28;20388;-69
2022/08/26 05:35:08;;;;;;;;;;;23.40;70.70;;;;;;5048390;28;20320;-69
2022/08/26 05:37:35;;;;;;;;;;;23.40;70.70;;;;;;5051235;28;20027;-69
2022/08/26 05:40:02;;;;;;;;;;;23.40;70.70;;;;;;5051825;28;19913;-69
2022/08/26 05:42:27;;;;;;;;;;;23.40;70.50;;;;;;5051575;28;19917;-69
2022/08/26 05:44:53;;;;;;;;;;;23.40;70.60;;;;;;5052005;28;20003;-69
2022/08/26 05:47:18;;;;;;;;;;;23.40;70.70;;;;;;5051178;28;19917;-69
2022/08/26 05:49:44;;;;;;;;;;;23.40;70.80;;;;;;5051168;28;19921;-69
2022/08/26 05:52:10;;;;;;;;;;;23.30;70.90;;;;;;5051355;28;20377;-69
2022/08/26 05:54:37;;;;;;;;;;;23.30;70.80;;;;;;5033714;28;20327;-70
2022/08/26 05:57:03;;;;;;;;;;;23.40;70.80;;;;;;5050822;28;19936;-69
2022/08/26 05:59:28;;;;;;;;;;;23.40;70.80;;;;;;5051257;28;19931;-69
2022/08/26 06:01:54;;;;;;;;;;;23.40;70.70;;;;;;5033574;28;19916;-69
2022/08/26 06:04:20;;;;;;;;;;;23.40;70.90;;;;;;5050832;28;19929;-70
2022/08/26 06:06:45;;;;;;;;;;;23.40;70.90;;;;;;5050337;28;20319;-70
2022/08/26 06:09:11;;;;;;;;;;;23.40;70.70;;;;;;5050148;28;19944;-69
2022/08/26 06:11:37;;;;;;;;;;;23.50;70.80;;;;;;5048089;28;19986;-69
2022/08/26 06:14:04;;;;;;;;;;;23.50;70.60;;;;;;5050912;28;19927;-69
2022/08/26 06:16:30;;;;;;;;;;;23.60;70.60;;;;;;5050534;28;19916;-70
2022/08/26 06:18:56;;;;;;;;;;;23.60;70.40;;;;;;5032738;28;19979;-69
2022/08/26 06:21:22;;;;;;;;;;;23.70;70.30;;;;;;5033115;28;19915;-69
2022/08/26 06:26:32;;;;;;;;;;;23.80;70.20;;;;;;5050510;28;19920;-69
2022/08/26 06:28:58;;;;;;;;;;;23.80;70.00;;;;;;5050379;28;20264;-69
2022/08/26 06:31:24;;;;;;;;;;;23.80;70.00;;;;;;5051070;28;19916;-71
2022/08/26 06:33:51;;;;;;;;;;;23.80;69.90;;;;;;5050837;28;19913;-70
2022/08/26 06:36:18;;;;;;;;;;;23.80;69.80;;;;;;5031778;28;19959;-70
2022/08/26 06:38:44;;;;;;;;;;;23.80;69.90;;;;;;5050570;28;20051;-69
2022/08/26 06:41:10;;;;;;;;;;;23.80;69.90;;;;;;5032810;28;19917;-70
2022/08/26 06:43:37;;;;;;;;;;;23.80;69.90;;;;;;5051011;28;19921;-69
2022/08/26 06:46:04;;;;;;;;;;;23.80;70.00;;;;;;5049788;28;19920;-69
2022/08/26 06:48:30;;;;;;;;;;;23.80;69.80;;;;;;5050238;28;19920;-69
2022/08/26 06:51:03;;;;;;;;;;;23.80;69.70;;;;;;5049518;28;19921;-70
2022/08/26 06:53:28;;;;;;;;;;;23.90;69.60;;;;;;5048940;28;20034;-70
2022/08/26 06:55:54;;;;;;;;;;;23.90;69.40;;;;;;5049883;28;19979;-70
2022/08/26 06:58:19;;;;;;;;;;;23.90;69.10;;;;;;5032753;28;19917;-70
2022/08/26 07:00:45;;;;;;;;;;;23.90;69.00;;;;;;5030969;28;19917;-69
2022/08/26 07:03:12;;;;;;;;;;;24.00;68.80;;;;;;5050345;28;19924;-71
2022/08/26 07:05:37;;;;;;;;;;;24.00;68.60;;;;;;5049289;28;19917;-70
2022/08/26 07:08:04;;;;;;;;;;;24.00;68.40;;;;;;5049530;28;20451;-69
2022/08/26 07:10:30;;;;;;;;;;;24.00;68.30;;;;;;5049885;28;19928;-70
2022/08/26 07:12:55;;;;;;;;;;;24.10;68.20;;;;;;5050089;28;19979;-70
2022/08/26 07:15:21;;;;;;;;;;;24.10;67.90;;;;;;5050099;28;19912;-69
2022/08/26 07:17:47;;;;;;;;;;;24.10;67.90;;;;;;5049579;28;20314;-69
2022/08/26 07:20:13;;;;;;;;;;;24.10;67.70;;;;;;5031184;28;19920;-69
2022/08/26 07:22:38;;;;;;;;;;;24.20;67.70;;;;;;5049674;28;19986;-70
2022/08/26 07:25:06;;;;;;;;;;;24.20;67.50;;;;;;5049858;28;19920;-69
2022/08/26 07:27:32;;;;;;;;;;;24.30;67.40;;;;;;5049290;28;19971;-70
2022/08/26 07:29:58;;;;;;;;;;;24.30;67.30;;;;;;5026437;28;19971;-70
2022/08/26 07:32:23;;;;;;;;;;;24.30;67.10;;;;;;5049817;28;19972;-69
2022/08/26 07:34:49;;;;;;;;;;;24.30;67.10;;;;;;5049095;28;20346;-70
2022/08/26 07:37:15;;;;;;;;;;;24.30;67.00;;;;;;5047213;28;19921;-70
2022/08/26 07:39:41;;;;;;;;;;;24.40;66.90;;;;;;5049588;28;19923;-69
2022/08/26 07:42:07;;;;;;;;;;;24.50;66.80;;;;;;5049729;28;19920;-70
2022/08/26 07:44:34;;;;;;;;;;;24.50;66.50;;;;;;5049651;28;19921;-70
2022/08/26 07:46:59;;;;;;;;;;;24.50;66.20;;;;;;5048817;28;19917;-70
2022/08/26 07:49:25;;;;;;;;;;;24.50;66.10;;;;;;5031072;28;19916;-70
2022/08/26 07:51:51;;;;;;;;;;;24.50;66.20;;;;;;5049007;28;19925;-70
2022/08/26 07:54:17;;;;;;;;;;;24.50;66.10;;;;;;5049380;28;19917;-70
2022/08/26 07:56:43;;;;;;;;;;;24.50;66.10;;;;;;5048849;28;19966;-70
2022/08/26 07:59:09;;;;;;;;;;;24.60;65.90;;;;;;5045606;28;20387;-70
2022/08/26 08:01:35;;;;;;;;;;;24.70;65.70;;;;;;5043688;28;20042;-70
2022/08/26 08:04:00;;;;;;;;;;;24.80;65.50;;;;;;5045476;28;19921;-70
2022/08/26 08:06:26;;;;;;;;;;;24.80;65.30;;;;;;5047145;28;20256;-70
2022/08/26 08:08:52;;;;;;;;;;;24.90;65.30;;;;;;5049331;28;19921;-70
2022/08/26 08:11:21;;;;;;;;;;;25.00;64.90;;;;;;5043498;28;19978;-73
2022/08/26 08:13:48;;;;;;;;;;;25.00;64.40;;;;;;5048557;28;20380;-66
2022/08/26 08:16:14;;;;;;;;;;;25.00;64.60;;;;;;5043988;28;19913;-65
2022/08/26 08:18:39;;;;;;;;;;;25.00;64.60;;;;;;5043296;28;19918;-65
2022/08/26 08:21:05;;;;;;;;;;;25.10;64.50;;;;;;5041819;28;20030;-65
2022/08/26 08:23:31;;;;;;;;;;;25.20;64.40;;;;;;5042932;28;20327;-68
2022/08/26 08:26:01;;;;;;;;;;;25.20;64.00;;;;;;5046160;28;19956;-68
2022/08/26 08:28:27;;;;;;;;;;;25.20;64.10;;;;;;5048257;28;20019;-68
2022/08/26 08:30:52;;;;;;;;;;;25.10;64.30;;;;;;5042773;28;20475;-66
2022/08/26 08:33:18;;;;;;;;;;;25.20;64.20;;;;;;5053517;28;19917;-66
2022/08/26 08:35:44;;;;;;;;;;;25.30;64.00;;;;;;5051482;28;19924;-66
2022/08/26 08:38:10;;;;;;;;;;;25.30;64.00;;;;;;5052222;28;19917;-66
2022/08/26 08:40:38;;;;;;;;;;;25.30;64.00;;;;;;5052423;28;19980;-65
2022/08/26 08:43:06;;;;;;;;;;;25.30;64.10;;;;;;5052907;28;19916;-65
2022/08/26 08:45:37;;;;;;;;;;;25.20;64.00;;;;;;5045908;28;19913;-66
2022/08/26 08:48:04;;;;;;;;;;;25.20;64.10;;;;;;5053610;28;19921;-65
2022/08/26 08:50:35;;;;;;;;;;;25.10;64.30;;;;;;5048956;28;19920;-66
2022/08/26 08:53:01;;;;;;;;;;;25.10;64.30;;;;;;5046028;28;19948;-67
2022/08/26 08:55:43;;;;;;;;;;;25.10;64.30;;;;;;5032568;28;19963;-66
2022/08/26 08:58:14;;;;;;;;;;;25.10;64.40;;;;;;5051602;28;19917;-67
2022/08/26 09:00:53;;;;;;;;;;;25.10;64.50;;;;;;5051284;28;19999;-67
2022/08/26 09:03:25;;;;;;;;;;;25.20;64.40;;;;;;5055173;28;19921;-67
2022/08/26 09:05:51;;;;;;;;;;;25.20;64.20;;;;;;5051402;28;19966;-67
2022/08/26 09:08:20;;;;;;;;;;;25.20;64.20;;;;;;5053909;28;20361;-66
2022/08/26 09:10:48;;;;;;;;;;;25.20;64.10;;;;;;5037151;28;20312;-67
2022/08/26 09:13:16;;;;;;;;;;;25.20;64.20;;;;;;5051297;28;19921;-67
2022/08/26 09:16:02;;;;;;;;;;;25.30;64.00;;;;;;5052309;28;20435;-66
2022/08/26 09:18:53;;;;;;;;;;;25.30;63.90;;;;;;5043459;28;20287;-67
2022/08/26 09:21:22;;;;;;;;;;;25.20;63.90;;;;;;5017768;28;19912;-67
2022/08/26 09:23:49;;;;;;;;;;;25.30;63.90;;;;;;5055073;28;19916;-66
2022/08/26 09:26:20;;;;;;;;;;;25.40;63.60;;;;;;5036590;28;19916;-67
2022/08/26 09:28:47;;;;;;;;;;;25.50;63.50;;;;;;5055167;28;19913;-66
2022/08/26 09:31:19;;;;;;;;;;;25.50;63.40;;;;;;5052332;28;19935;-66
2022/08/26 09:33:44;;;;;;;;;;;25.50;63.50;;;;;;5049995;28;19917;-66
2022/08/26 09:36:13;;;;;;;;;;;25.50;63.50;;;;;;5053800;28;19917;-66
2022/08/26 09:38:39;;;;;;;;;;;25.50;63.60;;;;;;5036997;28;19912;-67
2022/08/26 09:41:07;;;;;;;;;;;25.40;63.70;;;;;;5054890;28;19939;-67
2022/08/26 09:43:33;;;;;;;;;;;25.30;63.80;;;;;;5052338;28;19920;-66
2022/08/26 09:46:21;;;;;;;;;;;25.30;63.90;;;;;;5033383;28;19921;-66
2022/08/26 09:48:47;;;;;;;;;;;25.20;64.00;;;;;;5046902;28;19924;-67
2022/08/26 09:51:21;;;;;;;;;;;25.20;64.10;;;;;;5040345;28;19925;-68
2022/08/26 09:53:54;;;;;;;;;;;25.20;64.20;;;;;;5033223;28;20222;-67
2022/08/26 09:56:20;;;;;;;;;;;25.10;64.30;;;;;;5047227;28;19921;-67
2022/08/26 09:58:46;;;;;;;;;;;25.10;64.40;;;;;;5045373;28;19983;-67
2022/08/26 10:01:24;;;;;;;;;;;25.20;64.40;;;;;;5049199;28;20337;-67
2022/08/26 10:03:50;;;;;;;;;;;25.10;64.30;;;;;;5046429;28;19920;-67
2022/08/26 10:06:16;;;;;;;;;;;25.20;64.20;;;;;;5048162;28;19928;-69
2022/08/26 10:08:43;;;;;;;;;;;25.20;64.20;;;;;;5041845;28;20279;-70
2022/08/26 10:11:23;;;;;;;;;;;25.20;64.10;;;;;;5045532;28;19925;-69
2022/08/26 10:13:55;;;;;;;;;;;25.30;64.20;;;;;;5048086;28;19963;-70
2022/08/26 10:16:24;;;;;;;;;;;25.40;63.80;;;;;;5023851;28;19917;-69
2022/08/26 10:19:00;;;;;;;;;;;25.50;63.70;;;;;;5024529;28;20011;-70
2022/08/26 10:21:29;;;;;;;;;;;25.50;63.60;;;;;;5042898;28;19913;-70
2022/08/26 10:23:55;;;;;;;;;;;25.30;63.70;;;;;;5024671;28;19928;-70
2022/08/26 10:26:21;;;;;;;;;;;25.20;63.90;;;;;;5028120;28;19978;-70
2022/08/26 10:28:55;;;;;;;;;;;25.20;64.00;;;;;;5040413;28;19924;-70
2022/08/26 10:31:26;;;;;;;;;;;25.20;63.90;;;;;;5028322;28;19929;-69
2022/08/26 10:33:53;;;;;;;;;;;25.10;64.10;;;;;;5042983;28;19921;-70
2022/08/26 10:39:06;;;;;;;;;;;25.00;64.40;;;;;;5045498;28;19982;-70
2022/08/26 10:41:35;;;;;;;;;;;24.90;64.60;;;;;;5048649;28;20000;-69
2022/08/26 10:44:01;;;;;;;;;;;24.90;64.60;;;;;;5044686;28;20292;-69
2022/08/26 10:46:31;;;;;;;;;;;24.90;64.50;;;;;;5042135;28;19917;-69
2022/08/26 10:48:59;;;;;;;;;;;24.80;64.60;;;;;;5044842;28;19920;-69
2022/08/26 10:51:27;;;;;;;;;;;24.80;64.50;;;;;;5041196;28;19909;-68
2022/08/26 10:54:00;;;;;;;;;;;24.80;64.90;;;;;;5046549;28;20398;-69
2022/08/26 10:56:31;;;;;;;;;;;24.80;64.20;;;;;;5037419;28;19917;-68
2022/08/26 10:58:57;;;;;;;;;;;24.90;64.20;;;;;;5042889;28;20394;-69
2022/08/26 11:01:42;;;;;;;;;;;24.90;63.90;;;;;;5048747;28;19916;-69
2022/08/26 11:04:20;;;;;;;;;;;25.00;63.70;;;;;;5049756;28;19967;-69
2022/08/26 11:06:45;;;;;;;;;;;25.00;63.60;;;;;;5044260;28;20003;-69
2022/08/26 11:09:31;;;;;;;;;;;25.10;63.60;;;;;;5030669;28;20017;-69
2022/08/26 11:11:57;;;;;;;;;;;25.20;63.40;;;;;;5047506;28;19924;-69
2022/08/26 11:14:22;;;;;;;;;;;25.30;63.10;;;;;;5045911;28;19917;-69
2022/08/26 11:16:50;;;;;;;;;;;25.30;62.90;;;;;;5030095;28;19962;-69
2022/08/26 11:19:34;;;;;;;;;;;25.30;62.80;;;;;;5048919;28;20367;-69
2022/08/26 11:22:18;;;;;;;;;;;25.20;62.80;;;;;;5046309;28;19917;-69
2022/08/26 11:24:55;;;;;;;;;;;25.10;63.60;;;;;;5048018;28;20371;-69
2022/08/26 11:27:24;;;;;;;;;;;24.80;64.70;;;;;;5040449;28;20356;-69
2022/08/26 11:29:56;;;;;;;;;;;24.60;65.80;;;;;;5041015;28;20368;-69
2022/08/26 11:32:43;;;;;;;;;;;24.40;66.60;;;;;;5043335;28;19920;-69
2022/08/26 11:35:10;;;;;;;;;;;24.30;67.70;;;;;;5047459;28;19917;-69
2022/08/26 11:37:38;;;;;;;;;;;24.20;67.90;;;;;;5047081;28;19913;-69
2022/08/26 11:40:12;;;;;;;;;;;24.20;68.10;;;;;;5046132;28;19934;-69
2022/08/26 11:42:59;;;;;;;;;;;24.10;68.20;;;;;;5045249;28;20437;-69
2022/08/26 11:45:37;;;;;;;;;;;24.20;68.40;;;;;;5048414;28;19917;-69
2022/08/26 11:48:21;;;;;;;;;;;24.10;68.40;;;;;;5046798;28;19939;-69
2022/08/26 11:50:53;;;;;;;;;;;24.20;68.30;;;;;;5043073;28;20307;-69
2022/08/26 11:53:19;;;;;;;;;;;24.20;68.20;;;;;;5046315;28;19917;-69
2022/08/26 11:55:45;;;;;;;;;;;24.30;68.30;;;;;;5042906;28;19932;-69
2022/08/26 11:58:12;;;;;;;;;;;24.30;68.20;;;;;;5046212;28;19917;-69
2022/08/26 12:00:47;;;;;;;;;;;24.20;67.90;;;;;;5047267;28;20326;-69
2022/08/26 12:03:35;;;;;;;;;;;24.30;68.00;;;;;;5044092;28;20030;-69
2022/08/26 12:06:01;;;;;;;;;;;24.40;67.90;;;;;;5044115;28;19917;-69
2022/08/26 12:08:30;;;;;;;;;;;24.30;67.70;;;;;;5048819;28;19920;-70
2022/08/26 12:11:03;;;;;;;;;;;24.30;67.80;;;;;;5046934;28;19912;-67
2022/08/26 12:13:28;;;;;;;;;;;24.20;68.10;;;;;;5047665;28;20408;-68
2022/08/26 12:15:55;;;;;;;;;;;24.20;68.30;;;;;;5041806;28;19983;-67
2022/08/26 12:18:23;;;;;;;;;;;24.10;68.60;;;;;;5049618;28;19924;-68
2022/08/26 12:20:52;;;;;;;;;;;24.10;68.70;;;;;;5044524;28;20399;-67
2022/08/26 12:23:21;;;;;;;;;;;24.10;68.80;;;;;;5046168;28;21926;-67
2022/08/26 12:25:48;;;;;;;;;;;24.00;69.10;;;;;;5026689;28;20292;-67
2022/08/26 12:28:14;;;;;;;;;;;24.00;69.20;;;;;;5025693;28;19916;-68
2022/08/26 12:30:39;;;;;;;;;;;24.10;69.50;;;;;;5048272;28;19933;-68
2022/08/26 12:33:07;;;;;;;;;;;24.10;69.60;;;;;;5031314;28;19940;-67
2022/08/26 12:35:33;;;;;;;;;;;24.20;69.60;;;;;;5044211;28;20359;-68
2022/08/26 12:37:59;;;;;;;;;;;24.30;69.90;;;;;;5045241;28;19917;-67
2022/08/26 12:40:32;;;;;;;;;;;24.20;70.00;;;;;;5045299;28;20035;-68
2022/08/26 12:42:59;;;;;;;;;;;24.20;70.10;;;;;;5048811;28;19998;-67
2022/08/26 12:45:32;;;;;;;;;;;24.20;69.80;;;;;;5043729;28;19917;-67
2022/08/26 12:48:00;;;;;;;;;;;24.20;69.70;;;;;;5046469;28;19913;-70
2022/08/26 12:50:33;;;;;;;;;;;24.10;69.70;;;;;;5050926;28;20580;-70
2022/08/26 12:53:03;;;;;;;;;;;24.10;70.00;;;;;;5048455;28;20307;-70
2022/08/26 12:55:31;;;;;;;;;;;24.10;70.20;;;;;;5045123;28;19944;-70
2022/08/26 12:58:09;;;;;;;;;;;24.20;70.20;;;;;;5032121;28;19925;-70
2022/08/26 13:00:36;;;;;;;;;;;24.30;70.00;;;;;;5046986;28;19913;-70
2022/08/26 13:03:02;;;;;;;;;;;24.40;69.60;;;;;;5050447;28;19955;-70
2022/08/26 13:05:31;;;;;;;;;;;24.40;69.40;;;;;;5047519;28;19955;-70
2022/08/26 13:08:07;;;;;;;;;;;24.40;69.20;;;;;;5050701;28;20391;-70
2022/08/26 13:10:35;;;;;;;;;;;24.50;68.90;;;;;;5045204;28;19917;-70
2022/08/26 13:13:00;;;;;;;;;;;24.50;68.80;;;;;;5032143;28;19939;-70
2022/08/26 13:15:26;;;;;;;;;;;24.40;68.80;;;;;;5030457;28;19921;-70
2022/08/26 13:17:51;;;;;;;;;;;24.40;69.10;;;;;;5031659;28;19928;-70
2022/08/26 13:20:17;;;;;;;;;;;24.40;69.10;;;;;;5053523;28;19951;-70
2022/08/26 13:22:43;;;;;;;;;;;24.40;68.90;;;;;;5031260;28;19929;-70
2022/08/26 13:25:09;;;;;;;;;;;24.40;68.70;;;;;;5049638;28;19920;-70
2022/08/26 13:27:34;;;;;;;;;;;24.50;68.70;;;;;;5045886;28;20437;-70
2022/08/26 13:30:00;;;;;;;;;;;24.40;68.30;;;;;;5049921;28;19925;-70
2022/08/26 13:32:26;;;;;;;;;;;24.40;68.10;;;;;;5049046;28;19939;-70
2022/08/26 13:34:52;;;;;;;;;;;24.40;68.10;;;;;;5052394;28;19920;-70
2022/08/26 13:37:22;;;;;;;;;;;24.40;67.70;;;;;;5050393;28;19921;-70
2022/08/26 13:39:48;;;;;;;;;;;24.40;67.50;;;;;;5047503;28;19928;-70
2022/08/26 13:42:13;;;;;;;;;;;24.40;67.50;;;;;;5047767;28;20387;-70
2022/08/26 13:44:41;;;;;;;;;;;24.50;67.30;;;;;;5050608;28;20019;-70
2022/08/26 13:47:07;;;;;;;;;;;24.60;67.20;;;;;;5051231;28;19956;-70
2022/08/26 13:49:32;;;;;;;;;;;24.60;66.80;;;;;;5049129;28;20509;-70
2022/08/26 13:51:58;;;;;;;;;;;24.60;66.60;;;;;;5050333;28;19926;-70
2022/08/26 13:54:23;;;;;;;;;;;24.70;66.40;;;;;;5043440;28;19920;-70
2022/08/26 13:56:50;;;;;;;;;;;24.70;66.10;;;;;;5052163;28;19978;-70
2022/08/26 13:59:16;;;;;;;;;;;24.60;65.90;;;;;;5050074;28;19956;-67
2022/08/26 14:01:41;;;;;;;;;;;24.50;65.70;;;;;;5051482;28;19916;-67
2022/08/26 14:04:07;;;;;;;;;;;24.40;65.60;;;;;;5049748;28;19921;-67
2022/08/26 14:06:33;;;;;;;;;;;24.40;65.80;;;;;;5050940;28;19920;-67
2022/08/26 14:08:59;;;;;;;;;;;24.30;65.90;;;;;;5051189;28;19921;-67
2022/08/26 14:11:24;;;;;;;;;;;24.20;66.00;;;;;;5033647;28;20322;-67
2022/08/26 14:13:51;;;;;;;;;;;24.10;65.90;;;;;;5049394;28;19917;-67
2022/08/26 14:16:21;;;;;;;;;;;24.10;65.80;;;;;;5050779;28;19913;-67
2022/08/26 14:18:48;;;;;;;;;;;24.00;65.70;;;;;;5033058;28;19927;-67
2022/08/26 14:21:14;;;;;;;;;;;23.90;65.70;;;;;;5050279;28;19917;-67
2022/08/26 14:23:40;;;;;;;;;;;23.80;65.70;;;;;;5050851;28;20289;-67
2022/08/26 14:26:09;;;;;;;;;;;23.80;65.80;;;;;;5050756;28;19983;-67